createdAt,value
2022-12-07T00:01:20.848Z,2.67
2022-12-07T00:03:50.893Z,2.87
2022-12-07T00:06:21.528Z,2.63
2022-12-07T00:08:49.990Z,3.03
2022-12-07T00:11:19.779Z,3.13
2022-12-07T00:13:48.644Z,3.07
2022-12-07T00:16:18.568Z,2.87
2022-12-07T00:18:47.319Z,2.97
2022-12-07T00:21:17.273Z,2.87
2022-12-07T00:23:48.404Z,2.60
2022-12-07T00:26:17.656Z,2.80
2022-12-07T00:28:49.004Z,2.70
2022-12-07T00:31:19.170Z,2.77
2022-12-07T00:33:47.890Z,2.40
2022-12-07T00:36:21.778Z,2.63
2022-12-07T00:38:54.666Z,2.47
2022-12-07T00:41:24.388Z,2.80
2022-12-07T00:43:52.765Z,2.37
2022-12-07T00:46:22.009Z,2.53
2022-12-07T00:48:50.802Z,2.47
2022-12-07T00:51:20.385Z,3.00
2022-12-07T00:53:48.748Z,2.67
2022-12-07T00:56:21.691Z,2.50
2022-12-07T00:58:53.384Z,3.07
2022-12-07T01:01:21.450Z,2.60
2022-12-07T01:03:49.399Z,2.17
2022-12-07T01:06:18.499Z,2.30
2022-12-07T01:08:46.814Z,2.50
2022-12-07T01:11:18.157Z,2.80
2022-12-07T01:13:46.493Z,2.60
2022-12-07T01:16:17.192Z,2.30
2022-12-07T01:18:48.858Z,1.90
2022-12-07T01:21:19.491Z,2.50
2022-12-07T01:23:47.292Z,2.33
2022-12-07T01:26:20.641Z,2.40
2022-12-07T01:28:48.844Z,2.63
2022-12-07T01:31:21.110Z,2.30
2022-12-07T01:33:51.560Z,2.40
2022-12-07T01:36:21.234Z,2.40
2022-12-07T01:38:52.702Z,2.30
2022-12-07T01:41:23.000Z,2.57
2022-12-07T01:44:10.993Z,2.17
2022-12-07T01:46:38.986Z,2.03
2022-12-07T01:49:10.802Z,2.37
2022-12-07T01:51:41.205Z,2.30
2022-12-07T01:54:10.015Z,2.10
2022-12-07T01:56:41.241Z,2.07
2022-12-07T01:59:09.932Z,2.13
2022-12-07T02:01:37.840Z,2.30
2022-12-07T02:04:06.524Z,2.20
2022-12-07T02:06:34.995Z,2.40
2022-12-07T02:09:02.821Z,2.37
2022-12-07T02:11:30.931Z,2.30
2022-12-07T02:14:00.839Z,2.27
2022-12-07T02:16:37.084Z,2.30
2022-12-07T02:20:03.267Z,2.37
2022-12-07T02:23:07.966Z,2.47
2022-12-07T02:25:55.341Z,2.20
2022-12-07T02:28:32.414Z,2.33
2022-12-07T02:31:06.509Z,2.07
2022-12-07T02:33:38.830Z,2.27
2022-12-07T02:36:11.778Z,2.20
2022-12-07T02:38:45.383Z,2.30
2022-12-07T02:41:17.599Z,2.23
2022-12-07T02:43:49.968Z,2.20
2022-12-07T02:46:24.079Z,2.17
2022-12-07T02:48:54.064Z,2.20
2022-12-07T02:51:23.128Z,2.30
2022-12-07T02:53:51.060Z,2.20
2022-12-07T02:56:28.612Z,3.43
2022-12-07T02:59:09.829Z,2.10
2022-12-07T03:01:49.346Z,2.33
2022-12-07T03:04:33.166Z,1.97
2022-12-07T03:07:06.711Z,2.63
2022-12-07T03:09:40.056Z,2.50
2022-12-07T03:12:15.169Z,2.30
2022-12-07T03:14:51.609Z,2.23
2022-12-07T03:17:26.591Z,2.30
2022-12-07T03:20:05.341Z,2.00
2022-12-07T03:22:36.090Z,1.90
2022-12-07T03:25:08.337Z,2.23
2022-12-07T03:27:43.386Z,2.07
2022-12-07T03:30:14.928Z,2.03
2022-12-07T03:32:47.606Z,1.90
2022-12-07T03:35:21.132Z,2.63
2022-12-07T03:37:54.371Z,2.43
2022-12-07T03:40:28.268Z,2.23
2022-12-07T03:42:57.735Z,2.30
2022-12-07T03:45:33.588Z,2.53
2022-12-07T03:48:10.453Z,2.40
2022-12-07T03:50:46.573Z,2.40
2022-12-07T03:53:20.331Z,2.30
2022-12-07T03:55:50.094Z,2.03
2022-12-07T03:58:21.453Z,2.33
2022-12-07T04:00:50.704Z,2.60
2022-12-07T04:03:20.132Z,1.83
2022-12-07T04:05:48.165Z,2.23
2022-12-07T04:08:16.138Z,2.10
2022-12-07T04:10:44.178Z,2.27
2022-12-07T04:13:12.067Z,2.17
2022-12-07T04:15:39.903Z,2.00
2022-12-07T04:18:07.906Z,1.93
2022-12-07T04:20:37.072Z,2.17
2022-12-07T04:23:04.973Z,2.30
2022-12-07T04:25:33.060Z,1.90
2022-12-07T04:28:00.866Z,2.50
2022-12-07T04:30:28.671Z,2.37
2022-12-07T04:32:56.639Z,2.13
2022-12-07T04:35:24.463Z,1.97
2022-12-07T04:37:53.600Z,2.20
2022-12-07T04:40:21.557Z,1.80
2022-12-07T04:42:49.367Z,1.83
2022-12-07T04:45:17.304Z,2.20
2022-12-07T04:47:45.261Z,1.93
2022-12-07T04:50:13.291Z,1.77
2022-12-07T04:52:41.073Z,1.97
2022-12-07T04:55:10.683Z,1.80
2022-12-07T04:57:38.493Z,1.90
2022-12-07T05:00:07.665Z,1.87
2022-12-07T05:02:35.787Z,2.30
2022-12-07T05:05:03.827Z,1.97
2022-12-07T05:07:31.653Z,2.03
2022-12-07T05:10:00.096Z,1.57
2022-12-07T05:12:29.786Z,1.80
2022-12-07T05:14:57.563Z,2.03
2022-12-07T05:17:25.544Z,2.00
2022-12-07T05:19:53.364Z,2.00
2022-12-07T05:22:21.164Z,1.90
2022-12-07T05:24:49.167Z,1.70
2022-12-07T05:27:16.979Z,1.93
2022-12-07T05:29:46.262Z,1.53
2022-12-07T05:32:14.667Z,2.03
2022-12-07T05:34:42.580Z,1.70
2022-12-07T05:37:10.457Z,2.40
2022-12-07T05:39:39.011Z,2.13
2022-12-07T05:42:15.955Z,1.80
2022-12-07T05:44:47.088Z,2.20
2022-12-07T05:47:16.425Z,1.80
2022-12-07T05:49:44.302Z,1.67
2022-12-07T05:52:12.380Z,1.73
2022-12-07T05:54:40.300Z,1.73
2022-12-07T05:57:08.123Z,2.17
2022-12-07T05:59:35.061Z,1.70
2022-12-07T06:02:06.067Z,1.70
2022-12-07T06:04:35.908Z,1.73
2022-12-07T06:07:03.988Z,1.70
2022-12-07T06:09:32.616Z,2.10
2022-12-07T06:12:18.396Z,1.97
2022-12-07T06:14:46.864Z,1.90
2022-12-07T06:17:16.630Z,2.10
2022-12-07T06:19:44.908Z,1.90
2022-12-07T06:22:13.369Z,1.57
2022-12-07T06:24:42.275Z,1.90
2022-12-07T06:27:10.468Z,2.00
2022-12-07T06:29:38.744Z,1.97
2022-12-07T06:32:06.959Z,2.07
2022-12-07T06:34:36.425Z,1.60
2022-12-07T06:37:04.745Z,1.93
2022-12-07T06:39:33.033Z,2.20
2022-12-07T06:42:01.209Z,2.13
2022-12-07T06:44:29.127Z,1.97
2022-12-07T06:47:18.788Z,1.70
2022-12-07T06:49:46.819Z,1.73
2022-12-07T06:52:14.627Z,2.27
2022-12-07T06:54:42.422Z,1.43
2022-12-07T06:57:10.420Z,1.97
2022-12-07T06:59:38.239Z,1.90
2022-12-07T07:02:06.096Z,1.80
2022-12-07T07:04:35.342Z,2.27
2022-12-07T07:07:04.519Z,2.43
2022-12-07T07:09:32.385Z,2.50
2022-12-07T07:12:00.441Z,2.10
2022-12-07T07:14:28.284Z,2.03
2022-12-07T07:16:56.152Z,1.93
2022-12-07T07:19:24.440Z,1.90
2022-12-07T07:21:52.231Z,1.60
2022-12-07T07:24:21.560Z,1.80
2022-12-07T07:26:49.669Z,1.60
2022-12-07T07:29:17.495Z,1.97
2022-12-07T07:31:45.315Z,1.97
2022-12-07T07:34:13.441Z,1.73
2022-12-07T07:36:41.569Z,2.00
2022-12-07T07:39:09.386Z,1.70
2022-12-07T07:41:38.909Z,1.70
2022-12-07T07:44:06.787Z,1.70
2022-12-07T07:46:34.683Z,1.77
2022-12-07T07:49:03.425Z,1.73
2022-12-07T07:51:31.259Z,1.83
2022-12-07T07:53:59.095Z,1.60
2022-12-07T07:56:27.093Z,1.87
2022-12-07T07:58:56.541Z,2.23
2022-12-07T08:01:24.474Z,2.20
2022-12-07T08:03:52.536Z,2.00
2022-12-07T08:06:20.358Z,1.87
2022-12-07T08:08:48.188Z,1.87
2022-12-07T08:11:16.275Z,1.90
2022-12-07T08:13:44.285Z,2.07
2022-12-07T08:16:13.622Z,2.00
2022-12-07T08:18:43.127Z,1.60
2022-12-07T08:21:13.996Z,1.93
2022-12-07T08:23:42.555Z,2.00
2022-12-07T08:26:12.748Z,1.83
2022-12-07T08:28:41.074Z,1.90
2022-12-07T08:31:12.526Z,1.73
2022-12-07T08:33:42.500Z,2.00
2022-12-07T08:36:13.798Z,2.40
2022-12-07T08:39:01.377Z,2.07
2022-12-07T08:41:31.864Z,2.10
2022-12-07T08:43:59.772Z,2.03
2022-12-07T08:46:35.656Z,1.83
2022-12-07T08:49:07.988Z,1.80
2022-12-07T08:51:35.962Z,2.03
2022-12-07T08:54:08.867Z,3.80
2022-12-07T08:56:37.544Z,2.47
2022-12-07T08:59:06.229Z,1.97
2022-12-07T09:01:35.165Z,2.17
2022-12-07T09:04:03.075Z,2.47
2022-12-07T09:06:32.406Z,1.70
2022-12-07T09:09:03.331Z,1.77
2022-12-07T09:11:31.269Z,2.23
2022-12-07T09:13:59.079Z,1.70
2022-12-07T09:16:27.202Z,1.53
2022-12-07T09:18:55.112Z,1.57
2022-12-07T09:21:22.959Z,1.30
2022-12-07T09:23:52.407Z,1.97
2022-12-07T09:26:20.207Z,1.60
2022-12-07T09:28:49.279Z,1.50
2022-12-07T09:31:25.720Z,1.90
2022-12-07T09:33:57.940Z,1.77
2022-12-07T09:36:26.325Z,2.00
2022-12-07T09:38:55.556Z,1.57
2022-12-07T09:41:25.499Z,1.97
2022-12-07T09:43:54.702Z,1.40
2022-12-07T09:46:23.310Z,1.40
2022-12-07T09:48:52.684Z,1.43
2022-12-07T09:51:24.645Z,1.30
2022-12-07T09:53:55.910Z,1.37
2022-12-07T09:56:25.468Z,1.70
2022-12-07T09:59:01.981Z,1.23
2022-12-07T10:01:33.523Z,1.43
2022-12-07T10:04:11.577Z,1.20
2022-12-07T10:06:39.918Z,0.80
2022-12-07T10:09:13.636Z,1.30
2022-12-07T10:12:04.287Z,1.37
2022-12-07T10:15:05.513Z,1.27
2022-12-07T10:17:32.679Z,1.13
2022-12-07T10:20:19.289Z,1.40
2022-12-07T10:23:02.918Z,1.87
2022-12-07T10:25:35.111Z,1.33
2022-12-07T10:28:13.165Z,1.10
2022-12-07T10:30:57.865Z,1.53
2022-12-07T10:33:35.008Z,1.23
2022-12-07T10:36:17.569Z,1.60
2022-12-07T10:38:48.616Z,1.00
2022-12-07T10:41:17.805Z,1.40
2022-12-07T10:43:50.364Z,1.70
2022-12-07T10:46:54.262Z,1.70
2022-12-07T10:49:54.576Z,1.67
2022-12-07T10:52:36.581Z,1.43
2022-12-07T10:55:18.276Z,1.60
2022-12-07T10:58:02.265Z,1.90
2022-12-07T11:00:39.703Z,2.17
2022-12-07T11:03:34.369Z,2.00
2022-12-07T11:06:16.435Z,1.90
2022-12-07T11:09:03.147Z,1.57
2022-12-07T11:11:37.374Z,1.60
2022-12-07T11:14:18.833Z,1.67
2022-12-07T11:16:57.724Z,1.80
2022-12-07T11:19:52.289Z,1.67
2022-12-07T11:22:29.740Z,1.50
2022-12-07T11:25:04.506Z,2.00
2022-12-07T11:27:39.603Z,1.93
2022-12-07T11:30:16.032Z,2.23
2022-12-07T11:33:01.918Z,2.50
2022-12-07T11:35:40.236Z,2.37
2022-12-07T11:38:15.993Z,4.03
2022-12-07T11:40:47.512Z,2.70
2022-12-07T11:43:23.738Z,2.17
2022-12-07T11:46:02.002Z,2.27
2022-12-07T11:48:36.773Z,1.97
2022-12-07T11:51:05.517Z,2.20
2022-12-07T11:53:39.951Z,1.70
2022-12-07T11:56:12.639Z,1.40
2022-12-07T11:58:51.153Z,1.93
2022-12-07T12:01:37.584Z,1.87
2022-12-07T12:04:19.398Z,2.00
2022-12-07T12:06:47.352Z,1.83
2022-12-07T12:15:25.792Z,1.70
2022-12-07T12:18:13.080Z,1.60
2022-12-07T12:20:45.474Z,1.57
2022-12-07T12:23:17.787Z,1.37
2022-12-07T12:25:49.100Z,1.80
2022-12-07T12:28:25.408Z,1.67
2022-12-07T12:31:15.715Z,1.70
2022-12-07T12:33:50.427Z,1.60
2022-12-07T12:36:26.145Z,1.90
2022-12-07T12:39:14.573Z,1.27
2022-12-07T12:42:19.809Z,1.37
2022-12-07T12:45:22.563Z,1.30
2022-12-07T12:48:00.341Z,1.47
2022-12-07T12:50:32.589Z,1.47
2022-12-07T12:53:14.177Z,1.67
2022-12-07T12:56:15.418Z,1.50
2022-12-07T12:58:46.888Z,1.80
2022-12-07T13:01:44.275Z,1.60
2022-12-07T13:04:36.435Z,1.40
2022-12-07T13:07:05.861Z,1.40
2022-12-07T13:09:37.246Z,1.50
2022-12-07T13:12:07.718Z,1.17
2022-12-07T13:14:44.730Z,1.20
2022-12-07T13:17:13.702Z,1.70
2022-12-07T13:20:03.055Z,1.20
2022-12-07T13:23:01.544Z,1.40
2022-12-07T13:25:39.959Z,1.77
2022-12-07T13:28:18.977Z,1.60
2022-12-07T13:31:04.177Z,1.60
2022-12-07T13:33:32.748Z,1.83
2022-12-07T13:36:02.535Z,1.43
2022-12-07T13:38:35.307Z,1.47
2022-12-07T13:41:14.704Z,1.50
2022-12-07T13:43:51.102Z,1.27
2022-12-07T13:46:21.865Z,1.53
2022-12-07T13:48:52.221Z,2.03
2022-12-07T13:51:23.214Z,1.23
2022-12-07T13:53:54.818Z,1.50
2022-12-07T13:56:33.724Z,1.37
2022-12-07T13:59:02.187Z,2.13
2022-12-07T14:01:33.114Z,1.33
2022-12-07T14:04:19.715Z,1.60
2022-12-07T14:06:52.929Z,1.03
2022-12-07T14:09:24.572Z,1.30
2022-12-07T14:11:54.452Z,1.10
2022-12-07T14:14:24.115Z,1.30
2022-12-07T14:17:00.991Z,1.20
2022-12-07T14:19:48.634Z,1.30
2022-12-07T14:22:36.097Z,1.30
2022-12-07T14:25:21.892Z,1.10
2022-12-07T14:27:54.029Z,1.40
2022-12-07T14:30:22.747Z,1.50
2022-12-07T14:32:53.729Z,1.37
2022-12-07T14:35:22.166Z,1.33
2022-12-07T14:37:51.332Z,1.33
2022-12-07T14:40:22.654Z,1.30
2022-12-07T14:42:55.652Z,1.27
2022-12-07T14:45:25.283Z,1.60
2022-12-07T14:53:37.755Z,1.40
2022-12-07T14:56:11.073Z,1.50
2022-12-07T14:58:40.543Z,1.50
2022-12-07T15:01:10.699Z,2.07
2022-12-07T15:03:39.808Z,2.70
2022-12-07T15:06:09.231Z,2.50
2022-12-07T15:08:39.400Z,2.27
2022-12-07T15:11:08.720Z,2.10
2022-12-07T15:13:53.967Z,2.23
2022-12-07T15:16:23.063Z,2.03
2022-12-07T15:19:19.192Z,1.87
2022-12-07T15:21:39.136Z,1.80
2022-12-07T15:24:07.633Z,2.33
2022-12-07T15:26:36.952Z,1.67
2022-12-07T15:29:05.061Z,1.50
2022-12-07T15:31:54.415Z,1.60
2022-12-07T15:34:21.196Z,1.93
2022-12-07T15:36:49.148Z,1.60
2022-12-07T15:39:16.952Z,1.50
2022-12-07T15:41:46.349Z,1.53
2022-12-07T15:44:31.053Z,1.37
2022-12-07T15:46:59.442Z,2.10
2022-12-07T15:49:27.413Z,1.60
2022-12-07T15:51:57.641Z,1.63
2022-12-07T15:54:27.132Z,1.67
2022-12-07T15:56:57.499Z,1.60
2022-12-07T15:59:25.800Z,1.73
2022-12-07T16:01:53.831Z,1.80
2022-12-07T16:04:22.263Z,2.00
2022-12-07T16:06:51.000Z,2.07
2022-12-07T16:09:19.019Z,1.90
2022-12-07T16:11:46.918Z,1.57
2022-12-07T16:14:16.162Z,1.70
2022-12-07T16:16:44.263Z,1.80
2022-12-07T16:19:12.725Z,1.87
2022-12-07T16:21:40.963Z,2.90
2022-12-07T16:24:11.280Z,2.30
2022-12-07T16:26:43.710Z,2.30
2022-12-07T16:29:20.313Z,1.90
2022-12-07T16:31:48.852Z,2.23
2022-12-07T16:34:17.525Z,2.30
2022-12-07T16:39:33.851Z,2.10
2022-12-07T16:42:01.858Z,2.40
2022-12-07T16:44:31.694Z,2.40
2022-12-07T16:46:59.747Z,2.57
2022-12-07T16:49:27.743Z,2.13
2022-12-07T16:52:18.194Z,2.43
2022-12-07T16:54:44.325Z,2.77
2022-12-07T16:57:16.676Z,2.17
2022-12-07T16:59:49.842Z,2.37
2022-12-07T17:02:17.644Z,2.40
2022-12-07T17:04:45.588Z,2.50
2022-12-07T17:07:13.561Z,2.10
2022-12-07T17:09:41.433Z,2.33
2022-12-07T17:12:09.396Z,2.07
2022-12-07T17:14:55.203Z,2.47
2022-12-07T17:17:24.406Z,2.10
2022-12-07T17:19:52.293Z,2.00
2022-12-07T17:22:20.237Z,2.23
2022-12-07T17:24:48.081Z,1.83
2022-12-07T17:27:16.085Z,2.00
2022-12-07T17:29:44.176Z,1.80
2022-12-07T17:32:12.085Z,1.87
2022-12-07T17:34:41.389Z,2.90
2022-12-07T17:37:09.284Z,1.97
2022-12-07T17:39:37.189Z,2.07
2022-12-07T17:42:23.152Z,2.47
2022-12-07T17:44:50.971Z,2.20
2022-12-07T17:47:19.163Z,2.07
2022-12-07T17:49:49.347Z,2.63
2022-12-07T17:52:34.460Z,1.63
2022-12-07T17:55:02.778Z,1.70
2022-12-07T17:57:31.028Z,2.20
2022-12-07T17:59:59.307Z,1.73
2022-12-07T18:02:27.416Z,2.27
2022-12-07T18:04:56.785Z,1.80
2022-12-07T18:07:24.612Z,2.30
2022-12-07T18:09:52.748Z,2.17
2022-12-07T18:12:20.605Z,1.90
2022-12-07T18:14:49.112Z,2.20
2022-12-07T18:17:17.076Z,2.03
2022-12-07T18:19:45.479Z,2.10
2022-12-07T18:22:14.641Z,1.93
2022-12-07T18:24:42.624Z,2.17
2022-12-07T18:27:10.630Z,2.50
2022-12-07T18:29:38.459Z,2.20
2022-12-07T18:32:07.258Z,2.60
2022-12-07T18:34:35.173Z,2.43
2022-12-07T18:37:03.174Z,2.47
2022-12-07T18:39:34.225Z,2.77
2022-12-07T18:42:02.503Z,2.10
2022-12-07T18:44:30.496Z,2.23
2022-12-07T18:46:58.648Z,2.63
2022-12-07T18:49:26.453Z,2.47
2022-12-07T18:51:54.255Z,2.10
2022-12-07T18:54:22.510Z,2.30
2022-12-07T18:56:51.764Z,2.10
2022-12-07T18:59:37.055Z,2.50
2022-12-07T19:02:05.288Z,2.10
2022-12-07T19:04:33.383Z,2.30
2022-12-07T19:07:01.509Z,2.33
2022-12-07T19:09:29.732Z,2.30
2022-12-07T19:12:03.341Z,2.13
2022-12-07T19:14:33.713Z,2.80
2022-12-07T19:17:04.070Z,2.73
2022-12-07T19:19:33.890Z,2.27
2022-12-07T19:22:02.127Z,2.80
2022-12-07T19:24:30.621Z,2.17
2022-12-07T19:27:00.339Z,2.10
2022-12-07T19:29:31.322Z,2.20
2022-12-07T19:31:59.808Z,2.57
2022-12-07T19:34:28.174Z,2.37
2022-12-07T19:36:56.026Z,2.07
2022-12-07T19:39:25.219Z,2.63
2022-12-07T19:41:53.094Z,2.10
2022-12-07T19:44:25.463Z,2.87
2022-12-07T19:47:00.920Z,2.57
2022-12-07T19:49:33.707Z,2.60
2022-12-07T19:52:04.473Z,1.70
2022-12-07T19:54:34.014Z,2.17
2022-12-07T19:57:01.997Z,2.37
2022-12-07T19:59:31.456Z,2.07
2022-12-07T20:01:59.510Z,1.97
2022-12-07T20:04:30.362Z,2.23
2022-12-07T20:07:00.864Z,2.30
2022-12-07T20:09:29.358Z,1.70
2022-12-07T20:12:14.955Z,3.90
2022-12-07T20:14:44.314Z,2.00
2022-12-07T20:17:12.255Z,2.27
2022-12-07T20:19:41.032Z,1.67
2022-12-07T20:22:08.953Z,2.43
2022-12-07T20:24:36.882Z,2.37
2022-12-07T20:27:05.952Z,2.40
2022-12-07T20:29:34.341Z,1.90
2022-12-07T20:32:03.752Z,1.97
2022-12-07T20:34:31.908Z,1.97
2022-12-07T20:36:59.709Z,2.13
2022-12-07T20:39:27.819Z,1.67
2022-12-07T20:42:13.274Z,1.80
2022-12-07T20:44:41.431Z,2.20
2022-12-07T20:47:10.699Z,2.10
2022-12-07T20:49:38.586Z,1.83
2022-12-07T20:52:06.464Z,1.70
2022-12-07T20:54:34.464Z,1.67
2022-12-07T20:57:02.411Z,1.50
2022-12-07T20:59:30.591Z,1.80
2022-12-07T21:01:58.560Z,1.60
2022-12-07T21:04:27.926Z,1.70
2022-12-07T21:06:55.887Z,1.70
2022-12-07T21:09:26.971Z,1.47
2022-12-07T21:11:55.719Z,1.80
2022-12-07T21:14:24.027Z,1.87
2022-12-07T21:16:51.840Z,1.30
2022-12-07T21:19:19.868Z,1.50
2022-12-07T21:21:49.209Z,1.23
2022-12-07T21:24:17.026Z,2.53
2022-12-07T21:26:44.905Z,1.50
2022-12-07T21:29:12.784Z,1.30
2022-12-07T21:31:40.726Z,1.20
2022-12-07T21:34:09.094Z,1.40
2022-12-07T21:36:37.368Z,1.30
2022-12-07T21:39:07.607Z,1.40
2022-12-07T21:41:36.904Z,0.97
2022-12-07T21:44:10.356Z,1.23
2022-12-07T21:46:40.127Z,1.77
2022-12-07T21:49:10.963Z,1.40
2022-12-07T21:51:39.707Z,1.40
2022-12-07T21:54:09.172Z,1.37
2022-12-07T21:56:38.837Z,1.40
2022-12-07T21:59:08.571Z,2.40
2022-12-07T22:01:40.554Z,1.33
2022-12-07T22:04:10.077Z,1.30
2022-12-07T22:06:38.996Z,1.40
2022-12-07T22:09:08.483Z,1.07
2022-12-07T22:11:37.057Z,1.30
2022-12-07T22:14:23.533Z,1.30
2022-12-07T22:16:51.736Z,1.30
2022-12-07T22:19:19.984Z,1.03
2022-12-07T22:21:48.015Z,1.33
2022-12-07T22:24:17.234Z,1.17
2022-12-07T22:26:45.433Z,1.10
2022-12-07T22:29:13.467Z,1.00
2022-12-07T22:31:42.100Z,1.33
2022-12-07T22:34:16.508Z,1.10
2022-12-07T22:36:44.784Z,1.17
2022-12-07T22:39:12.855Z,1.10
2022-12-07T22:41:42.612Z,1.20
2022-12-07T22:44:10.542Z,1.30
2022-12-07T22:46:39.927Z,1.10
2022-12-07T22:49:08.516Z,1.00
2022-12-07T22:51:38.849Z,0.90
2022-12-07T22:54:08.343Z,1.00
2022-12-07T22:56:38.122Z,1.10
2022-12-07T22:59:08.319Z,1.30
2022-12-07T23:01:37.044Z,1.17
2022-12-07T23:04:05.363Z,1.00
2022-12-07T23:06:36.360Z,2.40
2022-12-07T23:09:06.943Z,1.10
2022-12-07T23:11:54.231Z,1.50
2022-12-07T23:14:26.776Z,0.90
2022-12-07T23:16:54.686Z,1.23
2022-12-07T23:19:22.586Z,1.00
2022-12-07T23:21:50.727Z,0.97
2022-12-07T23:24:18.676Z,1.30
2022-12-07T23:26:47.081Z,1.33
2022-12-07T23:29:17.873Z,1.00
2022-12-07T23:31:47.833Z,1.17
2022-12-07T23:34:15.686Z,1.10
2022-12-07T23:36:43.680Z,1.10
2022-12-07T23:39:12.337Z,1.30
2022-12-07T23:41:40.648Z,1.20
2022-12-07T23:44:08.493Z,1.20
2022-12-07T23:46:36.717Z,0.90
2022-12-07T23:49:07.569Z,1.13
2022-12-07T23:51:35.921Z,1.50
2022-12-07T23:54:03.912Z,1.20
2022-12-07T23:56:33.801Z,1.17
2022-12-07T23:59:02.664Z,1.00
